sensor_id;sensor_type;location;lat;lon;timestamp;P1;durP1;ratioP1;P2;durP2;ratioP2
41446;SDS011;27185;52.040;4.490;2023-03-04T00:00:41;10.88;;;1.83;;
41446;SDS011;27185;52.040;4.490;2023-03-04T00:03:30;10.18;;;1.48;;
41446;SDS011;27185;52.040;4.490;2023-03-04T00:06:15;10.38;;;1.20;;
41446;SDS011;27185;52.040;4.490;2023-03-04T00:09:01;10.35;;;1.70;;
41446;SDS011;27185;52.040;4.490;2023-03-04T00:11:48;5.88;;;1.08;;
41446;SDS011;27185;52.040;4.490;2023-03-04T00:14:34;8.85;;;1.25;;
41446;SDS011;27185;52.040;4.490;2023-03-04T00:17:19;13.70;;;1.33;;
41446;SDS011;27185;52.040;4.490;2023-03-04T00:20:05;9.75;;;1.80;;
41446;SDS011;27185;52.040;4.490;2023-03-04T00:22:51;11.82;;;1.33;;
41446;SDS011;27185;52.040;4.490;2023-03-04T00:25:37;9.70;;;1.75;;
41446;SDS011;27185;52.040;4.490;2023-03-04T00:28:23;15.13;;;1.50;;
41446;SDS011;27185;52.040;4.490;2023-03-04T00:31:09;13.20;;;1.90;;
41446;SDS011;27185;52.040;4.490;2023-03-04T00:33:55;7.65;;;0.88;;
41446;SDS011;27185;52.040;4.490;2023-03-04T00:36:41;9.48;;;1.23;;
41446;SDS011;27185;52.040;4.490;2023-03-04T00:39:28;13.68;;;1.13;;
41446;SDS011;27185;52.040;4.490;2023-03-04T00:42:14;9.55;;;1.05;;
41446;SDS011;27185;52.040;4.490;2023-03-04T00:45:00;10.82;;;1.80;;
41446;SDS011;27185;52.040;4.490;2023-03-04T00:47:45;11.40;;;1.25;;
41446;SDS011;27185;52.040;4.490;2023-03-04T00:50:31;9.38;;;1.73;;
41446;SDS011;27185;52.040;4.490;2023-03-04T00:53:16;11.32;;;1.60;;
41446;SDS011;27185;52.040;4.490;2023-03-04T00:56:02;16.75;;;2.05;;
41446;SDS011;27185;52.040;4.490;2023-03-04T00:58:48;10.27;;;1.70;;
41446;SDS011;27185;52.040;4.490;2023-03-04T01:01:33;8.98;;;1.40;;
41446;SDS011;27185;52.040;4.490;2023-03-04T01:04:22;10.30;;;1.27;;
41446;SDS011;27185;52.040;4.490;2023-03-04T01:07:08;10.27;;;1.23;;
41446;SDS011;27185;52.040;4.490;2023-03-04T01:09:54;11.43;;;1.00;;
41446;SDS011;27185;52.040;4.490;2023-03-04T01:12:39;6.28;;;1.08;;
41446;SDS011;27185;52.040;4.490;2023-03-04T01:15:25;13.20;;;1.25;;
41446;SDS011;27185;52.040;4.490;2023-03-04T01:18:11;11.40;;;1.15;;
41446;SDS011;27185;52.040;4.490;2023-03-04T01:20:56;8.07;;;0.73;;
41446;SDS011;27185;52.040;4.490;2023-03-04T01:23:42;10.02;;;1.33;;
41446;SDS011;27185;52.040;4.490;2023-03-04T01:26:28;9.15;;;1.40;;
41446;SDS011;27185;52.040;4.490;2023-03-04T01:29:13;8.40;;;1.48;;
41446;SDS011;27185;52.040;4.490;2023-03-04T01:31:59;8.70;;;1.08;;
41446;SDS011;27185;52.040;4.490;2023-03-04T01:34:45;7.05;;;0.82;;
41446;SDS011;27185;52.040;4.490;2023-03-04T01:37:30;8.55;;;1.00;;
41446;SDS011;27185;52.040;4.490;2023-03-04T01:40:16;11.45;;;1.23;;
41446;SDS011;27185;52.040;4.490;2023-03-04T01:43:02;6.45;;;0.80;;
41446;SDS011;27185;52.040;4.490;2023-03-04T01:45:48;10.10;;;1.52;;
41446;SDS011;27185;52.040;4.490;2023-03-04T01:48:36;8.43;;;1.20;;
41446;SDS011;27185;52.040;4.490;2023-03-04T01:51:22;6.17;;;0.90;;
41446;SDS011;27185;52.040;4.490;2023-03-04T01:54:08;11.93;;;1.27;;
41446;SDS011;27185;52.040;4.490;2023-03-04T01:56:53;8.05;;;1.27;;
41446;SDS011;27185;52.040;4.490;2023-03-04T01:59:40;7.40;;;0.85;;
41446;SDS011;27185;52.040;4.490;2023-03-04T02:02:25;7.18;;;1.00;;
41446;SDS011;27185;52.040;4.490;2023-03-04T02:05:11;8.70;;;0.95;;
41446;SDS011;27185;52.040;4.490;2023-03-04T02:07:58;11.43;;;1.20;;
41446;SDS011;27185;52.040;4.490;2023-03-04T02:10:45;5.47;;;0.70;;
41446;SDS011;27185;52.040;4.490;2023-03-04T02:13:32;11.15;;;1.20;;
41446;SDS011;27185;52.040;4.490;2023-03-04T02:16:19;15.90;;;1.35;;
41446;SDS011;27185;52.040;4.490;2023-03-04T02:19:29;8.48;;;0.80;;
41446;SDS011;27185;52.040;4.490;2023-03-04T02:22:29;9.73;;;1.10;;
41446;SDS011;27185;52.040;4.490;2023-03-04T02:25:17;8.02;;;1.08;;
41446;SDS011;27185;52.040;4.490;2023-03-04T02:28:07;7.50;;;1.10;;
41446;SDS011;27185;52.040;4.490;2023-03-04T02:30:53;9.88;;;1.10;;
41446;SDS011;27185;52.040;4.490;2023-03-04T02:33:39;8.55;;;1.25;;
41446;SDS011;27185;52.040;4.490;2023-03-04T02:36:24;7.30;;;0.93;;
41446;SDS011;27185;52.040;4.490;2023-03-04T02:42:05;7.03;;;0.98;;
41446;SDS011;27185;52.040;4.490;2023-03-04T02:44:58;8.70;;;0.65;;
41446;SDS011;27185;52.040;4.490;2023-03-04T02:47:44;12.50;;;1.20;;
41446;SDS011;27185;52.040;4.490;2023-03-04T02:50:30;7.70;;;0.90;;
41446;SDS011;27185;52.040;4.490;2023-03-04T02:53:20;5.20;;;0.75;;
41446;SDS011;27185;52.040;4.490;2023-03-04T02:56:06;8.18;;;1.27;;
41446;SDS011;27185;52.040;4.490;2023-03-04T02:58:52;9.52;;;1.45;;
41446;SDS011;27185;52.040;4.490;2023-03-04T03:01:38;10.10;;;1.08;;
41446;SDS011;27185;52.040;4.490;2023-03-04T03:04:23;11.00;;;1.17;;
41446;SDS011;27185;52.040;4.490;2023-03-04T03:07:10;8.43;;;0.88;;
41446;SDS011;27185;52.040;4.490;2023-03-04T03:09:55;10.20;;;1.10;;
41446;SDS011;27185;52.040;4.490;2023-03-04T03:12:41;10.30;;;1.30;;
41446;SDS011;27185;52.040;4.490;2023-03-04T03:15:27;9.48;;;1.20;;
41446;SDS011;27185;52.040;4.490;2023-03-04T03:18:12;8.50;;;0.70;;
41446;SDS011;27185;52.040;4.490;2023-03-04T03:20:58;10.23;;;1.45;;
41446;SDS011;27185;52.040;4.490;2023-03-04T03:23:43;13.30;;;1.55;;
41446;SDS011;27185;52.040;4.490;2023-03-04T03:26:29;6.55;;;1.23;;
41446;SDS011;27185;52.040;4.490;2023-03-04T03:29:15;7.13;;;1.20;;
41446;SDS011;27185;52.040;4.490;2023-03-04T03:32:00;10.27;;;1.00;;
41446;SDS011;27185;52.040;4.490;2023-03-04T03:34:46;8.90;;;0.80;;
41446;SDS011;27185;52.040;4.490;2023-03-04T03:37:31;10.68;;;1.00;;
41446;SDS011;27185;52.040;4.490;2023-03-04T03:40:17;10.43;;;0.70;;
41446;SDS011;27185;52.040;4.490;2023-03-04T03:43:02;6.47;;;0.60;;
41446;SDS011;27185;52.040;4.490;2023-03-04T03:45:48;6.75;;;0.63;;
41446;SDS011;27185;52.040;4.490;2023-03-04T03:48:35;10.57;;;1.03;;
41446;SDS011;27185;52.040;4.490;2023-03-04T03:51:21;6.53;;;0.73;;
41446;SDS011;27185;52.040;4.490;2023-03-04T03:54:07;8.23;;;1.20;;
41446;SDS011;27185;52.040;4.490;2023-03-04T03:56:52;10.45;;;1.27;;
41446;SDS011;27185;52.040;4.490;2023-03-04T03:59:38;7.40;;;0.82;;
41446;SDS011;27185;52.040;4.490;2023-03-04T04:02:24;10.32;;;0.80;;
41446;SDS011;27185;52.040;4.490;2023-03-04T04:05:09;5.63;;;1.00;;
41446;SDS011;27185;52.040;4.490;2023-03-04T04:07:56;6.25;;;0.50;;
41446;SDS011;27185;52.040;4.490;2023-03-04T04:10:41;7.65;;;1.08;;
41446;SDS011;27185;52.040;4.490;2023-03-04T04:13:28;8.23;;;0.90;;
41446;SDS011;27185;52.040;4.490;2023-03-04T04:16:13;6.65;;;1.10;;
41446;SDS011;27185;52.040;4.490;2023-03-04T04:18:59;5.70;;;0.70;;
41446;SDS011;27185;52.040;4.490;2023-03-04T04:21:45;6.90;;;1.33;;
41446;SDS011;27185;52.040;4.490;2023-03-04T04:24:31;5.45;;;0.60;;
41446;SDS011;27185;52.040;4.490;2023-03-04T04:27:16;5.85;;;0.98;;
41446;SDS011;27185;52.040;4.490;2023-03-04T04:30:02;9.65;;;1.13;;
41446;SDS011;27185;52.040;4.490;2023-03-04T04:32:48;5.38;;;0.68;;
41446;SDS011;27185;52.040;4.490;2023-03-04T04:35:34;6.40;;;0.90;;
41446;SDS011;27185;52.040;4.490;2023-03-04T04:38:22;4.57;;;0.70;;
41446;SDS011;27185;52.040;4.490;2023-03-04T04:41:19;6.95;;;0.70;;
41446;SDS011;27185;52.040;4.490;2023-03-04T04:44:07;5.32;;;0.95;;
41446;SDS011;27185;52.040;4.490;2023-03-04T04:46:53;7.68;;;0.85;;
41446;SDS011;27185;52.040;4.490;2023-03-04T04:49:39;15.40;;;1.08;;
41446;SDS011;27185;52.040;4.490;2023-03-04T04:52:24;10.60;;;0.73;;
41446;SDS011;27185;52.040;4.490;2023-03-04T04:55:10;4.40;;;0.88;;
41446;SDS011;27185;52.040;4.490;2023-03-04T04:57:55;6.50;;;0.60;;
41446;SDS011;27185;52.040;4.490;2023-03-04T05:00:41;6.25;;;1.13;;
41446;SDS011;27185;52.040;4.490;2023-03-04T05:03:26;5.38;;;0.70;;
41446;SDS011;27185;52.040;4.490;2023-03-04T05:06:12;8.00;;;0.93;;
41446;SDS011;27185;52.040;4.490;2023-03-04T05:08:58;7.47;;;1.02;;
41446;SDS011;27185;52.040;4.490;2023-03-04T05:11:43;5.55;;;0.70;;
41446;SDS011;27185;52.040;4.490;2023-03-04T05:14:29;9.25;;;0.80;;
41446;SDS011;27185;52.040;4.490;2023-03-04T05:17:15;5.80;;;0.65;;
41446;SDS011;27185;52.040;4.490;2023-03-04T05:20:00;11.38;;;1.48;;
41446;SDS011;27185;52.040;4.490;2023-03-04T05:22:46;5.65;;;0.80;;
41446;SDS011;27185;52.040;4.490;2023-03-04T05:25:31;9.55;;;2.00;;
41446;SDS011;27185;52.040;4.490;2023-03-04T05:28:17;4.85;;;0.95;;
41446;SDS011;27185;52.040;4.490;2023-03-04T05:31:03;6.60;;;0.70;;
41446;SDS011;27185;52.040;4.490;2023-03-04T05:33:49;7.25;;;1.05;;
41446;SDS011;27185;52.040;4.490;2023-03-04T05:36:34;7.53;;;1.27;;
41446;SDS011;27185;52.040;4.490;2023-03-04T05:39:20;8.10;;;0.77;;
41446;SDS011;27185;52.040;4.490;2023-03-04T05:42:06;9.85;;;1.10;;
41446;SDS011;27185;52.040;4.490;2023-03-04T05:44:51;6.95;;;1.52;;
41446;SDS011;27185;52.040;4.490;2023-03-04T05:47:37;5.20;;;0.88;;
41446;SDS011;27185;52.040;4.490;2023-03-04T05:50:23;10.98;;;0.98;;
41446;SDS011;27185;52.040;4.490;2023-03-04T05:53:09;10.10;;;1.30;;
41446;SDS011;27185;52.040;4.490;2023-03-04T05:55:55;9.73;;;1.08;;
41446;SDS011;27185;52.040;4.490;2023-03-04T06:01:28;6.25;;;0.70;;
41446;SDS011;27185;52.040;4.490;2023-03-04T06:04:15;5.40;;;1.08;;
41446;SDS011;27185;52.040;4.490;2023-03-04T06:07:00;8.48;;;0.90;;
41446;SDS011;27185;52.040;4.490;2023-03-04T06:09:46;10.75;;;1.10;;
41446;SDS011;27185;52.040;4.490;2023-03-04T06:12:32;8.30;;;0.70;;
41446;SDS011;27185;52.040;4.490;2023-03-04T06:15:18;10.93;;;1.15;;
41446;SDS011;27185;52.040;4.490;2023-03-04T06:18:04;8.52;;;1.25;;
41446;SDS011;27185;52.040;4.490;2023-03-04T06:20:59;7.32;;;1.00;;
41446;SDS011;27185;52.040;4.490;2023-03-04T06:23:45;6.07;;;0.80;;
41446;SDS011;27185;52.040;4.490;2023-03-04T06:26:31;5.00;;;0.70;;
41446;SDS011;27185;52.040;4.490;2023-03-04T06:29:16;3.13;;;0.73;;
41446;SDS011;27185;52.040;4.490;2023-03-04T06:32:02;6.75;;;1.08;;
41446;SDS011;27185;52.040;4.490;2023-03-04T06:34:48;5.72;;;0.90;;
41446;SDS011;27185;52.040;4.490;2023-03-04T06:37:34;5.50;;;0.80;;
41446;SDS011;27185;52.040;4.490;2023-03-04T06:40:19;5.00;;;0.95;;
41446;SDS011;27185;52.040;4.490;2023-03-04T06:43:05;8.15;;;1.10;;
41446;SDS011;27185;52.040;4.490;2023-03-04T06:45:50;8.02;;;0.98;;
41446;SDS011;27185;52.040;4.490;2023-03-04T06:48:36;9.30;;;1.15;;
41446;SDS011;27185;52.040;4.490;2023-03-04T06:51:22;3.35;;;0.63;;
41446;SDS011;27185;52.040;4.490;2023-03-04T06:54:08;9.25;;;1.38;;
41446;SDS011;27185;52.040;4.490;2023-03-04T06:56:53;4.95;;;0.95;;
41446;SDS011;27185;52.040;4.490;2023-03-04T06:59:39;5.60;;;0.70;;
41446;SDS011;27185;52.040;4.490;2023-03-04T07:02:25;7.18;;;1.13;;
41446;SDS011;27185;52.040;4.490;2023-03-04T07:05:10;5.00;;;0.60;;
41446;SDS011;27185;52.040;4.490;2023-03-04T07:07:56;5.18;;;0.60;;
41446;SDS011;27185;52.040;4.490;2023-03-04T07:10:42;4.90;;;0.63;;
41446;SDS011;27185;52.040;4.490;2023-03-04T07:13:27;5.72;;;0.70;;
41446;SDS011;27185;52.040;4.490;2023-03-04T07:16:14;4.18;;;0.55;;
41446;SDS011;27185;52.040;4.490;2023-03-04T07:19:02;4.45;;;0.47;;
41446;SDS011;27185;52.040;4.490;2023-03-04T07:21:48;7.25;;;0.60;;
41446;SDS011;27185;52.040;4.490;2023-03-04T07:24:34;8.43;;;0.98;;
41446;SDS011;27185;52.040;4.490;2023-03-04T07:27:20;3.70;;;0.50;;
41446;SDS011;27185;52.040;4.490;2023-03-04T07:30:06;5.50;;;0.80;;
41446;SDS011;27185;52.040;4.490;2023-03-04T07:32:52;4.07;;;0.55;;
41446;SDS011;27185;52.040;4.490;2023-03-04T07:35:40;4.45;;;0.40;;
41446;SDS011;27185;52.040;4.490;2023-03-04T07:38:26;2.75;;;0.70;;
41446;SDS011;27185;52.040;4.490;2023-03-04T07:41:12;2.00;;;0.40;;
41446;SDS011;27185;52.040;4.490;2023-03-04T07:43:58;4.78;;;0.63;;
41446;SDS011;27185;52.040;4.490;2023-03-04T07:46:43;3.08;;;0.50;;
41446;SDS011;27185;52.040;4.490;2023-03-04T07:49:29;3.13;;;0.50;;
41446;SDS011;27185;52.040;4.490;2023-03-04T07:52:15;3.13;;;0.70;;
41446;SDS011;27185;52.040;4.490;2023-03-04T07:55:00;4.32;;;0.57;;
41446;SDS011;27185;52.040;4.490;2023-03-04T07:57:46;2.30;;;0.40;;
41446;SDS011;27185;52.040;4.490;2023-03-04T08:00:32;2.05;;;0.50;;
41446;SDS011;27185;52.040;4.490;2023-03-04T08:03:18;4.85;;;0.40;;
41446;SDS011;27185;52.040;4.490;2023-03-04T08:06:04;4.32;;;0.90;;
41446;SDS011;27185;52.040;4.490;2023-03-04T08:08:54;4.65;;;0.40;;
41446;SDS011;27185;52.040;4.490;2023-03-04T08:11:42;6.28;;;0.43;;
41446;SDS011;27185;52.040;4.490;2023-03-04T08:14:28;3.47;;;0.40;;
41446;SDS011;27185;52.040;4.490;2023-03-04T08:17:14;2.47;;;0.30;;
41446;SDS011;27185;52.040;4.490;2023-03-04T08:20:00;2.17;;;0.20;;
41446;SDS011;27185;52.040;4.490;2023-03-04T08:22:45;7.45;;;0.52;;
41446;SDS011;27185;52.040;4.490;2023-03-04T08:25:31;1.83;;;0.30;;
41446;SDS011;27185;52.040;4.490;2023-03-04T08:28:17;2.53;;;0.30;;
41446;SDS011;27185;52.040;4.490;2023-03-04T08:31:02;3.05;;;0.30;;
41446;SDS011;27185;52.040;4.490;2023-03-04T08:33:48;3.90;;;0.45;;
41446;SDS011;27185;52.040;4.490;2023-03-04T08:36:35;3.22;;;0.20;;
41446;SDS011;27185;52.040;4.490;2023-03-04T08:39:20;1.52;;;0.30;;
41446;SDS011;27185;52.040;4.490;2023-03-04T08:42:06;2.10;;;0.20;;
41446;SDS011;27185;52.040;4.490;2023-03-04T08:44:51;2.13;;;0.20;;
41446;SDS011;27185;52.040;4.490;2023-03-04T08:47:37;2.85;;;0.30;;
41446;SDS011;27185;52.040;4.490;2023-03-04T08:50:23;1.92;;;0.20;;
41446;SDS011;27185;52.040;4.490;2023-03-04T08:53:09;2.33;;;0.30;;
41446;SDS011;27185;52.040;4.490;2023-03-04T08:55:55;4.93;;;0.30;;
41446;SDS011;27185;52.040;4.490;2023-03-04T08:58:40;0.90;;;0.30;;
41446;SDS011;27185;52.040;4.490;2023-03-04T09:01:26;0.98;;;0.20;;
41446;SDS011;27185;52.040;4.490;2023-03-04T09:04:11;2.40;;;0.30;;
41446;SDS011;27185;52.040;4.490;2023-03-04T09:06:57;2.15;;;0.30;;
41446;SDS011;27185;52.040;4.490;2023-03-04T09:09:48;2.38;;;0.30;;
41446;SDS011;27185;52.040;4.490;2023-03-04T09:12:40;1.27;;;0.30;;
41446;SDS011;27185;52.040;4.490;2023-03-04T09:15:26;1.45;;;0.35;;
41446;SDS011;27185;52.040;4.490;2023-03-04T09:18:11;1.13;;;0.28;;
41446;SDS011;27185;52.040;4.490;2023-03-04T09:20:58;3.67;;;0.40;;
41446;SDS011;27185;52.040;4.490;2023-03-04T09:23:43;4.97;;;0.57;;
41446;SDS011;27185;52.040;4.490;2023-03-04T09:26:29;3.33;;;0.65;;
41446;SDS011;27185;52.040;4.490;2023-03-04T09:29:14;3.10;;;0.40;;
41446;SDS011;27185;52.040;4.490;2023-03-04T09:32:00;2.78;;;0.50;;
41446;SDS011;27185;52.040;4.490;2023-03-04T09:34:46;2.08;;;0.30;;
41446;SDS011;27185;52.040;4.490;2023-03-04T09:37:31;8.43;;;0.40;;
41446;SDS011;27185;52.040;4.490;2023-03-04T09:40:18;1.45;;;0.30;;
41446;SDS011;27185;52.040;4.490;2023-03-04T09:43:25;2.67;;;0.30;;
41446;SDS011;27185;52.040;4.490;2023-03-04T09:46:47;2.38;;;0.28;;
41446;SDS011;27185;52.040;4.490;2023-03-04T09:49:27;1.88;;;0.25;;
41446;SDS011;27185;52.040;4.490;2023-03-04T09:52:18;4.35;;;0.40;;
41446;SDS011;27185;52.040;4.490;2023-03-04T09:55:13;4.35;;;0.75;;
41446;SDS011;27185;52.040;4.490;2023-03-04T09:58:20;1.73;;;0.30;;
41446;SDS011;27185;52.040;4.490;2023-03-04T10:04:28;3.80;;;0.40;;
41446;SDS011;27185;52.040;4.490;2023-03-04T10:07:18;5.30;;;0.40;;
41446;SDS011;27185;52.040;4.490;2023-03-04T10:13:25;2.35;;;0.28;;
41446;SDS011;27185;52.040;4.490;2023-03-04T10:16:19;3.65;;;0.30;;
41446;SDS011;27185;52.040;4.490;2023-03-04T10:19:20;2.45;;;0.30;;
41446;SDS011;27185;52.040;4.490;2023-03-04T10:25:35;2.70;;;0.30;;
41446;SDS011;27185;52.040;4.490;2023-03-04T10:28:30;2.45;;;0.30;;
41446;SDS011;27185;52.040;4.490;2023-03-04T10:31:30;1.88;;;0.30;;
41446;SDS011;27185;52.040;4.490;2023-03-04T10:34:20;4.47;;;0.40;;
41446;SDS011;27185;52.040;4.490;2023-03-04T10:37:06;3.65;;;0.38;;
41446;SDS011;27185;52.040;4.490;2023-03-04T10:39:53;5.10;;;0.50;;
41446;SDS011;27185;52.040;4.490;2023-03-04T10:42:39;3.35;;;0.57;;
41446;SDS011;27185;52.040;4.490;2023-03-04T10:45:25;3.55;;;0.52;;
41446;SDS011;27185;52.040;4.490;2023-03-04T10:48:27;7.10;;;0.50;;
41446;SDS011;27185;52.040;4.490;2023-03-04T10:51:19;5.55;;;0.50;;
41446;SDS011;27185;52.040;4.490;2023-03-04T10:54:08;5.82;;;0.85;;
41446;SDS011;27185;52.040;4.490;2023-03-04T10:57:05;6.93;;;0.70;;
41446;SDS011;27185;52.040;4.490;2023-03-04T11:00:25;4.10;;;0.50;;
41446;SDS011;27185;52.040;4.490;2023-03-04T11:03:34;1.63;;;0.43;;
41446;SDS011;27185;52.040;4.490;2023-03-04T11:06:21;6.63;;;0.68;;
41446;SDS011;27185;52.040;4.490;2023-03-04T11:09:16;7.30;;;0.60;;
41446;SDS011;27185;52.040;4.490;2023-03-04T11:12:15;6.90;;;0.90;;
41446;SDS011;27185;52.040;4.490;2023-03-04T11:15:03;1.20;;;0.30;;
41446;SDS011;27185;52.040;4.490;2023-03-04T11:18:09;4.97;;;0.40;;
41446;SDS011;27185;52.040;4.490;2023-03-04T11:20:57;2.30;;;0.40;;
41446;SDS011;27185;52.040;4.490;2023-03-04T11:26:39;0.75;;;0.20;;
41446;SDS011;27185;52.040;4.490;2023-03-04T11:29:32;5.70;;;0.82;;
41446;SDS011;27185;52.040;4.490;2023-03-04T11:32:31;3.05;;;0.50;;
41446;SDS011;27185;52.040;4.490;2023-03-04T11:35:26;5.38;;;0.40;;
41446;SDS011;27185;52.040;4.490;2023-03-04T11:38:18;2.20;;;0.32;;
41446;SDS011;27185;52.040;4.490;2023-03-04T11:44:10;4.22;;;0.60;;
41446;SDS011;27185;52.040;4.490;2023-03-04T11:53:46;2.55;;;0.32;;
41446;SDS011;27185;52.040;4.490;2023-03-04T11:56:43;1.70;;;0.30;;
41446;SDS011;27185;52.040;4.490;2023-03-04T12:02:38;1.27;;;0.28;;
41446;SDS011;27185;52.040;4.490;2023-03-04T12:33:55;1.95;;;0.45;;
41446;SDS011;27185;52.040;4.490;2023-03-04T12:40:26;4.05;;;0.45;;
41446;SDS011;27185;52.040;4.490;2023-03-04T12:56:32;6.82;;;0.90;;
41446;SDS011;27185;52.040;4.490;2023-03-04T12:59:36;4.30;;;0.60;;
41446;SDS011;27185;52.040;4.490;2023-03-04T13:12:39;6.55;;;0.65;;
41446;SDS011;27185;52.040;4.490;2023-03-04T13:18:01;4.30;;;0.50;;
41446;SDS011;27185;52.040;4.490;2023-03-04T13:24:41;7.88;;;0.70;;
41446;SDS011;27185;52.040;4.490;2023-03-04T13:27:49;6.28;;;0.50;;
41446;SDS011;27185;52.040;4.490;2023-03-04T13:33:44;6.40;;;0.70;;
41446;SDS011;27185;52.040;4.490;2023-03-04T13:36:51;5.85;;;0.70;;
41446;SDS011;27185;52.040;4.490;2023-03-04T13:39:39;5.95;;;0.88;;
41446;SDS011;27185;52.040;4.490;2023-03-04T13:42:38;3.92;;;0.70;;
41446;SDS011;27185;52.040;4.490;2023-03-04T13:45:34;9.25;;;0.55;;
41446;SDS011;27185;52.040;4.490;2023-03-04T13:48:28;6.85;;;0.73;;
41446;SDS011;27185;52.040;4.490;2023-03-04T13:57:17;6.35;;;0.60;;
41446;SDS011;27185;52.040;4.490;2023-03-04T14:00:04;4.20;;;0.50;;
41446;SDS011;27185;52.040;4.490;2023-03-04T14:03:05;7.53;;;0.95;;
41446;SDS011;27185;52.040;4.490;2023-03-04T14:09:10;8.07;;;1.30;;
41446;SDS011;27185;52.040;4.490;2023-03-04T14:12:17;9.55;;;1.00;;
41446;SDS011;27185;52.040;4.490;2023-03-04T14:15:15;7.05;;;1.25;;
41446;SDS011;27185;52.040;4.490;2023-03-04T14:18:09;10.88;;;1.08;;
41446;SDS011;27185;52.040;4.490;2023-03-04T14:20:56;12.27;;;1.20;;
41446;SDS011;27185;52.040;4.490;2023-03-04T14:23:44;11.40;;;1.20;;
41446;SDS011;27185;52.040;4.490;2023-03-04T14:26:29;7.30;;;0.93;;
41446;SDS011;27185;52.040;4.490;2023-03-04T14:32:09;8.30;;;0.80;;
41446;SDS011;27185;52.040;4.490;2023-03-04T14:34:57;4.50;;;0.98;;
41446;SDS011;27185;52.040;4.490;2023-03-04T14:40:44;7.55;;;0.80;;
41446;SDS011;27185;52.040;4.490;2023-03-04T14:43:45;6.43;;;1.00;;
41446;SDS011;27185;52.040;4.490;2023-03-04T14:46:55;15.40;;;1.38;;
41446;SDS011;27185;52.040;4.490;2023-03-04T14:49:45;9.07;;;1.20;;
41446;SDS011;27185;52.040;4.490;2023-03-04T14:55:25;6.20;;;1.02;;
41446;SDS011;27185;52.040;4.490;2023-03-04T14:58:22;5.63;;;1.17;;
41446;SDS011;27185;52.040;4.490;2023-03-04T15:01:16;8.73;;;0.98;;
41446;SDS011;27185;52.040;4.490;2023-03-04T15:04:09;10.50;;;1.30;;
41446;SDS011;27185;52.040;4.490;2023-03-04T15:06:57;6.00;;;1.30;;
41446;SDS011;27185;52.040;4.490;2023-03-04T15:09:42;6.05;;;0.80;;
41446;SDS011;27185;52.040;4.490;2023-03-04T15:12:38;7.13;;;0.98;;
41446;SDS011;27185;52.040;4.490;2023-03-04T15:18:24;6.43;;;0.63;;
41446;SDS011;27185;52.040;4.490;2023-03-04T15:24:07;8.23;;;1.05;;
41446;SDS011;27185;52.040;4.490;2023-03-04T15:26:53;5.63;;;0.65;;
41446;SDS011;27185;52.040;4.490;2023-03-04T15:29:39;12.30;;;1.45;;
41446;SDS011;27185;52.040;4.490;2023-03-04T15:32:25;8.35;;;1.52;;
41446;SDS011;27185;52.040;4.490;2023-03-04T15:35:12;8.25;;;1.08;;
41446;SDS011;27185;52.040;4.490;2023-03-04T15:37:59;5.82;;;1.02;;
41446;SDS011;27185;52.040;4.490;2023-03-04T15:40:45;11.15;;;0.93;;
41446;SDS011;27185;52.040;4.490;2023-03-04T15:43:32;8.50;;;1.02;;
41446;SDS011;27185;52.040;4.490;2023-03-04T15:46:17;6.72;;;1.27;;
41446;SDS011;27185;52.040;4.490;2023-03-04T15:49:03;10.23;;;1.20;;
41446;SDS011;27185;52.040;4.490;2023-03-04T15:51:49;7.90;;;0.90;;
41446;SDS011;27185;52.040;4.490;2023-03-04T15:54:34;8.05;;;1.00;;
41446;SDS011;27185;52.040;4.490;2023-03-04T15:57:22;6.18;;;1.00;;
41446;SDS011;27185;52.040;4.490;2023-03-04T16:00:10;6.88;;;0.90;;
41446;SDS011;27185;52.040;4.490;2023-03-04T16:02:57;5.60;;;1.02;;
41446;SDS011;27185;52.040;4.490;2023-03-04T16:05:43;8.30;;;0.70;;
41446;SDS011;27185;52.040;4.490;2023-03-04T16:08:30;6.35;;;0.93;;
41446;SDS011;27185;52.040;4.490;2023-03-04T16:11:18;6.60;;;0.93;;
41446;SDS011;27185;52.040;4.490;2023-03-04T16:14:08;8.45;;;0.70;;
41446;SDS011;27185;52.040;4.490;2023-03-04T16:16:55;6.00;;;0.60;;
41446;SDS011;27185;52.040;4.490;2023-03-04T16:19:41;6.35;;;0.70;;
41446;SDS011;27185;52.040;4.490;2023-03-04T16:22:26;5.97;;;0.70;;
41446;SDS011;27185;52.040;4.490;2023-03-04T16:25:14;7.50;;;0.82;;
41446;SDS011;27185;52.040;4.490;2023-03-04T16:28:01;7.10;;;0.98;;
41446;SDS011;27185;52.040;4.490;2023-03-04T16:30:48;7.05;;;0.85;;
41446;SDS011;27185;52.040;4.490;2023-03-04T16:33:34;5.85;;;0.90;;
41446;SDS011;27185;52.040;4.490;2023-03-04T16:36:21;6.82;;;0.55;;
41446;SDS011;27185;52.040;4.490;2023-03-04T16:39:12;6.68;;;0.80;;
41446;SDS011;27185;52.040;4.490;2023-03-04T16:42:08;5.38;;;0.50;;
41446;SDS011;27185;52.040;4.490;2023-03-04T16:45:02;3.92;;;0.80;;
41446;SDS011;27185;52.040;4.490;2023-03-04T16:47:48;1.75;;;0.40;;
41446;SDS011;27185;52.040;4.490;2023-03-04T16:50:36;2.75;;;0.43;;
41446;SDS011;27185;52.040;4.490;2023-03-04T16:53:28;4.28;;;0.85;;
41446;SDS011;27185;52.040;4.490;2023-03-04T16:56:18;5.65;;;0.65;;
41446;SDS011;27185;52.040;4.490;2023-03-04T16:59:04;3.88;;;0.50;;
41446;SDS011;27185;52.040;4.490;2023-03-04T17:01:51;3.58;;;0.40;;
41446;SDS011;27185;52.040;4.490;2023-03-04T17:04:37;1.83;;;0.40;;
41446;SDS011;27185;52.040;4.490;2023-03-04T17:07:23;6.88;;;0.80;;
41446;SDS011;27185;52.040;4.490;2023-03-04T17:10:08;3.33;;;0.57;;
41446;SDS011;27185;52.040;4.490;2023-03-04T17:12:55;2.65;;;0.40;;
41446;SDS011;27185;52.040;4.490;2023-03-04T17:15:40;5.70;;;1.17;;
41446;SDS011;27185;52.040;4.490;2023-03-04T17:18:26;3.08;;;0.50;;
41446;SDS011;27185;52.040;4.490;2023-03-04T17:21:14;4.00;;;0.70;;
41446;SDS011;27185;52.040;4.490;2023-03-04T17:24:01;2.85;;;0.65;;
41446;SDS011;27185;52.040;4.490;2023-03-04T17:26:47;5.30;;;0.70;;
41446;SDS011;27185;52.040;4.490;2023-03-04T17:29:32;3.72;;;0.57;;
41446;SDS011;27185;52.040;4.490;2023-03-04T17:32:18;4.10;;;0.52;;
41446;SDS011;27185;52.040;4.490;2023-03-04T17:35:05;3.08;;;0.52;;
41446;SDS011;27185;52.040;4.490;2023-03-04T17:37:52;9.77;;;0.88;;
41446;SDS011;27185;52.040;4.490;2023-03-04T17:43:07;6.03;;;0.90;;
41446;SDS011;27185;52.040;4.490;2023-03-04T17:48:52;4.10;;;0.70;;
41446;SDS011;27185;52.040;4.490;2023-03-04T17:51:40;4.18;;;0.60;;
41446;SDS011;27185;52.040;4.490;2023-03-04T17:54:26;10.00;;;1.25;;
41446;SDS011;27185;52.040;4.490;2023-03-04T17:57:12;2.17;;;0.50;;
41446;SDS011;27185;52.040;4.490;2023-03-04T17:59:58;6.03;;;0.77;;
41446;SDS011;27185;52.040;4.490;2023-03-04T18:02:43;4.28;;;0.52;;
41446;SDS011;27185;52.040;4.490;2023-03-04T18:05:29;9.15;;;1.52;;
41446;SDS011;27185;52.040;4.490;2023-03-04T18:08:15;8.25;;;0.85;;
41446;SDS011;27185;52.040;4.490;2023-03-04T18:11:00;8.30;;;1.33;;
41446;SDS011;27185;52.040;4.490;2023-03-04T18:13:46;7.00;;;0.75;;
41446;SDS011;27185;52.040;4.490;2023-03-04T18:16:32;6.15;;;0.70;;
41446;SDS011;27185;52.040;4.490;2023-03-04T18:19:18;6.13;;;1.05;;
41446;SDS011;27185;52.040;4.490;2023-03-04T18:22:03;4.72;;;0.85;;
41446;SDS011;27185;52.040;4.490;2023-03-04T18:24:49;5.95;;;0.75;;
41446;SDS011;27185;52.040;4.490;2023-03-04T18:27:35;5.18;;;0.80;;
41446;SDS011;27185;52.040;4.490;2023-03-04T18:30:23;8.45;;;1.20;;
41446;SDS011;27185;52.040;4.490;2023-03-04T18:33:11;7.03;;;1.20;;
41446;SDS011;27185;52.040;4.490;2023-03-04T18:36:00;5.40;;;0.73;;
41446;SDS011;27185;52.040;4.490;2023-03-04T18:38:49;8.93;;;1.30;;
41446;SDS011;27185;52.040;4.490;2023-03-04T18:41:34;4.75;;;0.75;;
41446;SDS011;27185;52.040;4.490;2023-03-04T18:44:20;5.05;;;0.95;;
41446;SDS011;27185;52.040;4.490;2023-03-04T18:47:06;3.40;;;0.70;;
41446;SDS011;27185;52.040;4.490;2023-03-04T18:49:51;7.70;;;1.05;;
41446;SDS011;27185;52.040;4.490;2023-03-04T18:52:37;3.78;;;0.70;;
41446;SDS011;27185;52.040;4.490;2023-03-04T18:55:23;7.13;;;1.27;;